Time;durP1;ratioP1;P1;durP2;ratioP2;P2;SDS_P1;SDS_P2;PMS_P1;PMS_P2;Temp;Humidity;BMP_temperature;BMP_pressure;BME280_temperature;BME280_humidity;BME280_pressure;Samples;Min_cycle;Max_cycle;Signal;HPM_P1;HPM_P2
2023/01/12 00:00:33;;;;;;;1.88;0.88;;;;;;;;;;5021653;28;20143;-72
2023/01/12 00:02:58;;;;;;;3.00;0.93;;;;;;;;;;5021848;28;20450;-71
2023/01/12 00:05:23;;;;;;;1.90;0.98;;;;;;;;;;5020211;28;20045;-72
2023/01/12 00:07:49;;;;;;;0.98;0.90;;;;;;;;;;5021821;28;20575;-71
2023/01/12 00:10:15;;;;;;;4.15;1.00;;;;;;;;;;5035910;28;20153;-71
2023/01/12 00:12:40;;;;;;;1.20;0.82;;;;;;;;;;5021665;28;20049;-72
2023/01/12 00:15:06;;;;;;;2.80;0.80;;;;;;;;;;5020630;28;20200;-72
2023/01/12 00:17:31;;;;;;;2.03;0.90;;;;;;;;;;5021049;28;20060;-72
2023/01/12 00:19:57;;;;;;;8.07;1.00;;;;;;;;;;5020469;28;20037;-72
2023/01/12 00:22:23;;;;;;;1.13;0.77;;;;;;;;;;5021578;28;20045;-71
2023/01/12 00:24:48;;;;;;;1.13;0.60;;;;;;;;;;5003995;28;20051;-72
2023/01/12 00:27:16;;;;;;;5.10;1.10;;;;;;;;;;5021284;28;20045;-72
2023/01/12 00:29:42;;;;;;;0.75;0.70;;;;;;;;;;5020478;28;20049;-71
2023/01/12 00:32:15;;;;;;;2.45;1.05;;;;;;;;;;5020186;28;20415;-72
2023/01/12 00:34:41;;;;;;;0.98;0.68;;;;;;;;;;5020021;28;20076;-72
2023/01/12 00:37:07;;;;;;;1.08;0.50;;;;;;;;;;5020954;28;20190;-72
2023/01/12 00:39:35;;;;;;;0.40;0.40;;;;;;;;;;5020252;28;20087;-72
2023/01/12 00:47:29;;;;;;;0.30;0.30;;;;;;;;;;5020321;28;20085;-72
2023/01/12 00:49:55;;;;;;;3.38;0.98;;;;;;;;;;5020914;28;20136;-72
2023/01/12 00:52:20;;;;;;;1.65;0.60;;;;;;;;;;5019669;28;20060;-72
2023/01/12 00:54:46;;;;;;;0.40;0.40;;;;;;;;;;5025352;28;20383;-72
2023/01/12 00:57:12;;;;;;;0.88;0.60;;;;;;;;;;5021046;28;20536;-72
2023/01/12 00:59:38;;;;;;;6.22;0.75;;;;;;;;;;5019617;28;20514;-71
2023/01/12 01:02:04;;;;;;;2.67;0.70;;;;;;;;;;5021069;28;20042;-69
2023/01/12 01:04:30;;;;;;;0.73;0.63;;;;;;;;;;5019751;28;20038;-70
2023/01/12 01:06:56;;;;;;;2.95;0.90;;;;;;;;;;5020904;28;20055;-70
2023/01/12 01:09:22;;;;;;;3.25;0.50;;;;;;;;;;5020879;28;20053;-70
2023/01/12 01:11:47;;;;;;;1.63;0.90;;;;;;;;;;5020121;28;20064;-70
2023/01/12 01:14:13;;;;;;;2.10;0.60;;;;;;;;;;5019414;28;20107;-70
2023/01/12 01:16:38;;;;;;;3.85;0.68;;;;;;;;;;5020532;28;20049;-68
2023/01/12 01:19:04;;;;;;;5.10;0.80;;;;;;;;;;5020847;28;20099;-69
2023/01/12 01:21:31;;;;;;;1.17;0.52;;;;;;;;;;5020001;28;20037;-69
2023/01/12 01:23:57;;;;;;;1.67;0.63;;;;;;;;;;5018780;28;20064;-69
2023/01/12 01:26:23;;;;;;;3.15;0.70;;;;;;;;;;5018502;28;20534;-69
2023/01/12 01:28:49;;;;;;;2.40;0.90;;;;;;;;;;5018829;28;20053;-69
2023/01/12 01:31:20;;;;;;;1.20;0.80;;;;;;;;;;5018515;28;20222;-69
2023/01/12 01:33:46;;;;;;;3.65;0.90;;;;;;;;;;5017505;28;20060;-69
2023/01/12 01:36:12;;;;;;;3.55;1.10;;;;;;;;;;5019261;28;20514;-69
2023/01/12 01:38:38;;;;;;;2.10;0.70;;;;;;;;;;5020675;28;20056;-67
2023/01/12 01:41:05;;;;;;;6.47;0.88;;;;;;;;;;5020407;28;20862;-67
2023/01/12 01:43:47;;;;;;;5.80;1.00;;;;;;;;;;5019637;28;20038;-67
2023/01/12 01:46:15;;;;;;;0.80;0.80;;;;;;;;;;5019564;28;20089;-67
2023/01/12 01:48:41;;;;;;;3.53;1.02;;;;;;;;;;5020212;28;20104;-67
2023/01/12 01:51:10;;;;;;;4.32;0.90;;;;;;;;;;5021171;28;20054;-67
2023/01/12 01:53:40;;;;;;;4.32;0.90;;;;;;;;;;5020252;28;20053;-68
2023/01/12 01:56:20;;;;;;;3.05;0.75;;;;;;;;;;5020574;28;20055;-68
2023/01/12 01:58:57;;;;;;;3.50;0.98;;;;;;;;;;5019677;28;20080;-68
2023/01/12 02:01:22;;;;;;;6.88;1.50;;;;;;;;;;5020388;28;20100;-68
2023/01/12 02:03:50;;;;;;;3.75;1.20;;;;;;;;;;5019711;28;20049;-68
2023/01/12 02:06:15;;;;;;;1.63;1.02;;;;;;;;;;5020125;28;20050;-69
2023/01/12 02:08:48;;;;;;;5.03;1.38;;;;;;;;;;5019233;28;20050;-68
2023/01/12 02:17:01;;;;;;;2.30;1.20;;;;;;;;;;5023890;28;20048;-69
2023/01/12 02:19:32;;;;;;;7.15;1.45;;;;;;;;;;5022623;28;20064;-68
2023/01/12 02:22:11;;;;;;;9.70;1.93;;;;;;;;;;5023726;28;20100;-68
2023/01/12 02:25:00;;;;;;;5.97;1.50;;;;;;;;;;5022854;28;20037;-68
2023/01/12 02:27:41;;;;;;;6.15;1.27;;;;;;;;;;5023732;28;21026;-68
2023/01/12 02:30:37;;;;;;;5.22;1.17;;;;;;;;;;5023631;28;20048;-69
2023/01/12 02:33:15;;;;;;;3.90;0.60;;;;;;;;;;5023466;28;20046;-69
2023/01/12 02:35:43;;;;;;;2.75;0.90;;;;;;;;;;5022177;28;20046;-69
2023/01/12 02:38:25;;;;;;;2.63;0.93;;;;;;;;;;5023901;28;20626;-68
2023/01/12 02:41:06;;;;;;;7.35;1.20;;;;;;;;;;5018994;28;21020;-69
2023/01/12 02:43:34;;;;;;;2.88;0.90;;;;;;;;;;5022396;28;20060;-69
2023/01/12 02:46:10;;;;;;;2.97;1.02;;;;;;;;;;5021287;28;20638;-69
2023/01/12 02:49:06;;;;;;;4.65;1.15;;;;;;;;;;5022997;28;20033;-69
2023/01/12 02:51:47;;;;;;;2.17;0.88;;;;;;;;;;5022210;28;20459;-69
2023/01/12 02:54:14;;;;;;;3.22;1.02;;;;;;;;;;5021449;28;20041;-69
2023/01/12 02:56:44;;;;;;;3.30;1.40;;;;;;;;;;5022927;28;20041;-69
2023/01/12 02:59:23;;;;;;;6.35;1.00;;;;;;;;;;5023023;28;20084;-68
2023/01/12 03:01:50;;;;;;;3.17;0.95;;;;;;;;;;5021987;28;20443;-68
2023/01/12 03:04:18;;;;;;;2.33;0.77;;;;;;;;;;5021525;28;20414;-68
2023/01/12 03:07:25;;;;;;;3.45;1.35;;;;;;;;;;5022760;28;20498;-67
2023/01/12 03:09:55;;;;;;;3.28;1.20;;;;;;;;;;5022136;28;20061;-67
2023/01/12 03:12:31;;;;;;;8.85;1.38;;;;;;;;;;5023364;28;20072;-67
2023/01/12 03:15:01;;;;;;;6.10;1.67;;;;;;;;;;5036432;28;20050;-67
2023/01/12 03:17:30;;;;;;;2.80;0.73;;;;;;;;;;5022472;28;20037;-67
2023/01/12 03:20:03;;;;;;;2.97;0.80;;;;;;;;;;5022474;28;20050;-67
2023/01/12 03:22:31;;;;;;;5.25;0.98;;;;;;;;;;5022409;28;20478;-67
2023/01/12 03:25:01;;;;;;;4.90;1.15;;;;;;;;;;5021773;28;20045;-67
2023/01/12 03:27:37;;;;;;;3.35;1.00;;;;;;;;;;5021487;28;20091;-68
2023/01/12 03:30:09;;;;;;;5.28;0.98;;;;;;;;;;5051467;28;20049;-68
2023/01/12 03:32:34;;;;;;;3.35;0.85;;;;;;;;;;5022350;28;20114;-68
2023/01/12 03:35:00;;;;;;;6.63;1.17;;;;;;;;;;5022418;28;20486;-68
2023/01/12 03:37:53;;;;;;;3.13;0.73;;;;;;;;;;5020275;28;20052;-68
2023/01/12 03:40:45;;;;;;;1.17;0.80;;;;;;;;;;5042718;28;20069;-67
2023/01/12 03:43:19;;;;;;;2.97;1.00;;;;;;;;;;5022283;28;20060;-68
2023/01/12 03:45:53;;;;;;;4.22;1.00;;;;;;;;;;5020577;28;20132;-68
2023/01/12 03:48:25;;;;;;;2.22;0.80;;;;;;;;;;5021826;28;20048;-67
2023/01/12 03:51:07;;;;;;;4.32;1.00;;;;;;;;;;5021875;28;20053;-67
2023/01/12 03:53:33;;;;;;;;;;;;;;;;;;5022138;28;20056;-68
2023/01/12 03:56:04;;;;;;;3.03;1.00;;;;;;;;;;5021519;28;19920;-68
2023/01/12 03:58:31;;;;;;;3.15;0.90;;;;;;;;;;5021236;28;20049;-69
2023/01/12 04:00:57;;;;;;;3.28;0.90;;;;;;;;;;5019331;28;20061;-68
2023/01/12 04:03:23;;;;;;;3.25;1.25;;;;;;;;;;5021886;28;20049;-69
2023/01/12 04:05:48;;;;;;;7.63;1.35;;;;;;;;;;5020651;28;20081;-68
2023/01/12 04:08:15;;;;;;;4.30;0.93;;;;;;;;;;5021792;28;20084;-68
2023/01/12 04:10:40;;;;;;;4.65;1.40;;;;;;;;;;5020849;28;20072;-68
2023/01/12 04:13:06;;;;;;;1.88;0.88;;;;;;;;;;5021957;28;20496;-68
2023/01/12 04:15:36;;;;;;;4.78;1.92;;;;;;;;;;5020532;28;20068;-68
2023/01/12 04:18:02;;;;;;;1.98;1.13;;;;;;;;;;5021688;28;20565;-68
2023/01/12 04:20:28;;;;;;;5.53;1.50;;;;;;;;;;5020863;28;20115;-68
2023/01/12 04:22:53;;;;;;;3.47;0.90;;;;;;;;;;5021163;28;20053;-68
2023/01/12 04:25:20;;;;;;;2.92;0.98;;;;;;;;;;5020978;28;20045;-68
2023/01/12 04:27:52;;;;;;;5.10;1.00;;;;;;;;;;5020606;28;20049;-68
2023/01/12 04:30:22;;;;;;;5.38;1.08;;;;;;;;;;5020781;28;20041;-68
2023/01/12 04:32:48;;;;;;;5.53;1.30;;;;;;;;;;5019757;28;20053;-68
2023/01/12 04:35:15;;;;;;;4.43;1.40;;;;;;;;;;5019824;28;20045;-68
2023/01/12 04:37:41;;;;;;;5.93;1.30;;;;;;;;;;5020549;28;20083;-68
2023/01/12 04:40:10;;;;;;;6.75;1.73;;;;;;;;;;5020537;28;20305;-68
2023/01/12 04:45:21;;;;;;;5.45;1.10;;;;;;;;;;5019618;28;20060;-68
2023/01/12 04:47:47;;;;;;;1.23;0.75;;;;;;;;;;5019679;28;20518;-68
2023/01/12 04:50:12;;;;;;;5.68;1.30;;;;;;;;;;5019998;28;20110;-68
2023/01/12 04:52:38;;;;;;;3.60;1.30;;;;;;;;;;5020718;28;20124;-68
2023/01/12 04:55:04;;;;;;;4.38;1.63;;;;;;;;;;5018750;28;20041;-69
2023/01/12 04:57:30;;;;;;;5.53;1.23;;;;;;;;;;5020732;28;20055;-69
2023/01/12 04:59:56;;;;;;;2.58;1.13;;;;;;;;;;5020990;28;20052;-69
2023/01/12 05:02:21;;;;;;;5.22;1.02;;;;;;;;;;5020692;28;20076;-68
2023/01/12 05:04:47;;;;;;;7.07;1.30;;;;;;;;;;5018735;28;20481;-68
2023/01/12 05:07:13;;;;;;;8.40;1.48;;;;;;;;;;5019433;28;20350;-70
2023/01/12 05:12:23;;;;;;;6.07;1.52;;;;;;;;;;5019634;28;20059;-71
2023/01/12 05:15:00;;;;;;;5.13;1.25;;;;;;;;;;5021418;28;20045;-70
2023/01/12 05:17:30;;;;;;;4.82;1.08;;;;;;;;;;5036205;28;20052;-68
2023/01/12 05:19:56;;;;;;;6.40;1.77;;;;;;;;;;5019517;28;20077;-70
2023/01/12 05:22:21;;;;;;;6.80;2.33;;;;;;;;;;5020086;28;20092;-69
2023/01/12 05:24:47;;;;;;;2.60;1.42;;;;;;;;;;5019013;28;20149;-70
2023/01/12 05:27:12;;;;;;;4.00;1.40;;;;;;;;;;5015561;28;20138;-69
2023/01/12 05:29:37;;;;;;;7.30;1.30;;;;;;;;;;5019592;28;20156;-69
2023/01/12 05:32:03;;;;;;;5.32;1.30;;;;;;;;;;5016927;28;20791;-69
2023/01/12 05:34:28;;;;;;;3.75;1.40;;;;;;;;;;5017049;28;20046;-71
2023/01/12 05:36:54;;;;;;;3.80;1.60;;;;;;;;;;5034809;28;20985;-69
2023/01/12 05:39:20;;;;;;;3.88;1.80;;;;;;;;;;5018783;28;20358;-69
2023/01/12 05:44:30;;;;;;;4.97;1.70;;;;;;;;;;5017985;28;20072;-72
2023/01/12 05:46:55;;;;;;;4.95;1.55;;;;;;;;;;5022932;28;20727;-68
2023/01/12 05:49:20;;;;;;;5.88;1.52;;;;;;;;;;5022247;28;20041;-69
2023/01/12 05:51:46;;;;;;;4.32;1.20;;;;;;;;;;5021989;28;20498;-70
2023/01/12 05:54:11;;;;;;;7.25;1.60;;;;;;;;;;5022357;28;20048;-69
2023/01/12 05:56:37;;;;;;;3.55;1.65;;;;;;;;;;5023675;28;20100;-69
2023/01/12 05:59:03;;;;;;;1.88;1.50;;;;;;;;;;5024379;28;20068;-69
2023/01/12 06:01:29;;;;;;;7.75;1.98;;;;;;;;;;5021763;28;20034;-69
2023/01/12 06:03:59;;;;;;;2.42;1.77;;;;;;;;;;5022272;28;20486;-69
2023/01/12 06:06:26;;;;;;;6.00;2.00;;;;;;;;;;5023869;28;20073;-69
2023/01/12 06:08:52;;;;;;;4.68;2.30;;;;;;;;;;5023736;28;20125;-68
2023/01/12 06:14:04;;;;;;;4.88;2.70;;;;;;;;;;5034381;28;20057;-71
2023/01/12 06:16:29;;;;;;;6.88;2.78;;;;;;;;;;5022513;28;20979;-69
2023/01/12 06:18:55;;;;;;;4.35;2.03;;;;;;;;;;5021646;28;20049;-69
2023/01/12 06:21:21;;;;;;;4.80;2.40;;;;;;;;;;5021333;28;20050;-69
2023/01/12 06:23:47;;;;;;;2.38;1.60;;;;;;;;;;5021567;28;20048;-69
2023/01/12 06:26:12;;;;;;;4.43;1.67;;;;;;;;;;5021095;28;20041;-69
2023/01/12 06:28:39;;;;;;;2.88;1.42;;;;;;;;;;5021689;28;20038;-69
2023/01/12 06:31:06;;;;;;;3.15;1.83;;;;;;;;;;5022215;28;20644;-70
2023/01/12 06:33:33;;;;;;;1.40;1.30;;;;;;;;;;5020247;28;20780;-69
2023/01/12 06:35:59;;;;;;;3.50;1.70;;;;;;;;;;5022231;28;21105;-69
2023/01/12 06:38:26;;;;;;;3.72;1.70;;;;;;;;;;5023249;28;20045;-69
2023/01/12 06:40:52;;;;;;;3.85;1.75;;;;;;;;;;5022775;28;20141;-69
2023/01/12 06:43:18;;;;;;;2.53;1.88;;;;;;;;;;5022510;28;20136;-69
2023/01/12 06:45:44;;;;;;;4.82;1.83;;;;;;;;;;5021414;28;20089;-69
2023/01/12 06:48:10;;;;;;;2.38;2.15;;;;;;;;;;5023281;28;20041;-69
2023/01/12 06:50:36;;;;;;;4.95;2.42;;;;;;;;;;5023125;28;20042;-71
2023/01/12 06:53:03;;;;;;;4.70;2.67;;;;;;;;;;5021939;28;20119;-70
2023/01/12 06:55:29;;;;;;;3.85;2.40;;;;;;;;;;5018599;28;20828;-69
2023/01/12 06:57:55;;;;;;;2.97;2.20;;;;;;;;;;5020643;28;20049;-69
2023/01/12 07:00:21;;;;;;;4.75;2.53;;;;;;;;;;5021226;28;20195;-69
2023/01/12 07:02:50;;;;;;;5.40;2.88;;;;;;;;;;5021205;28;20053;-69
2023/01/12 07:05:15;;;;;;;5.20;2.92;;;;;;;;;;5019231;28;20037;-69
2023/01/12 07:07:42;;;;;;;6.22;2.47;;;;;;;;;;5020897;28;20044;-69
2023/01/12 07:10:12;;;;;;;4.70;2.58;;;;;;;;;;5022311;28;20053;-69
2023/01/12 07:12:37;;;;;;;2.95;2.45;;;;;;;;;;5022928;28;20049;-69
2023/01/12 07:15:04;;;;;;;3.78;2.95;;;;;;;;;;5030142;28;20056;-69
2023/01/12 07:17:29;;;;;;;4.55;2.33;;;;;;;;;;5017832;28;20045;-68
2023/01/12 07:19:55;;;;;;;4.63;2.55;;;;;;;;;;5023008;28;20056;-68
2023/01/12 07:22:21;;;;;;;4.00;2.63;;;;;;;;;;5019787;28;20517;-70
2023/01/12 07:24:46;;;;;;;10.25;3.13;;;;;;;;;;5022050;28;20049;-69
2023/01/12 07:27:11;;;;;;;4.10;2.92;;;;;;;;;;5023525;28;20040;-68
2023/01/12 07:29:37;;;;;;;6.50;3.28;;;;;;;;;;5023102;28;20107;-69
2023/01/12 07:32:03;;;;;;;5.85;3.20;;;;;;;;;;5024768;28;20051;-69
2023/01/12 07:34:28;;;;;;;6.57;2.65;;;;;;;;;;5023434;28;20050;-69
2023/01/12 07:36:54;;;;;;;3.83;2.53;;;;;;;;;;5023826;28;20091;-71
2023/01/12 07:39:19;;;;;;;6.28;2.25;;;;;;;;;;5021949;28;20046;-71
2023/01/12 07:44:29;;;;;;;3.33;2.25;;;;;;;;;;5021255;28;20052;-69
2023/01/12 07:46:54;;;;;;;4.18;2.80;;;;;;;;;;5038644;28;20038;-69
2023/01/12 07:49:20;;;;;;;5.03;2.30;;;;;;;;;;5021938;28;20033;-69
2023/01/12 07:51:45;;;;;;;3.60;2.75;;;;;;;;;;5021972;28;20510;-68
2023/01/12 07:54:10;;;;;;;2.65;2.40;;;;;;;;;;5021849;28;20041;-68
2023/01/12 07:56:36;;;;;;;3.65;2.40;;;;;;;;;;5022060;28;20041;-68
2023/01/12 07:59:02;;;;;;;4.70;2.92;;;;;;;;;;5022543;28;20131;-68
2023/01/12 08:01:27;;;;;;;6.28;2.63;;;;;;;;;;5019931;28;20049;-69
2023/01/12 08:03:53;;;;;;;4.78;2.25;;;;;;;;;;5021923;28;20055;-68
2023/01/12 08:06:18;;;;;;;2.85;2.15;;;;;;;;;;5020897;28;20187;-69
2023/01/12 08:08:44;;;;;;;4.18;2.42;;;;;;;;;;5019978;28;20488;-69
2023/01/12 08:11:10;;;;;;;4.00;2.50;;;;;;;;;;5021031;28;20565;-69
2023/01/12 08:13:37;;;;;;;3.00;2.58;;;;;;;;;;5020816;28;20045;-70
2023/01/12 08:16:17;;;;;;;4.35;2.38;;;;;;;;;;5021432;28;20049;-70
2023/01/12 08:21:58;;;;;;;3.03;2.28;;;;;;;;;;5020714;28;20141;-69
2023/01/12 08:24:29;;;;;;;4.88;2.55;;;;;;;;;;5020041;28;20045;-69
2023/01/12 08:26:57;;;;;;;3.35;2.78;;;;;;;;;;5021457;28;20390;-69
2023/01/12 08:29:30;;;;;;;5.90;2.53;;;;;;;;;;5021822;28;20041;-69
2023/01/12 08:32:02;;;;;;;2.88;2.30;;;;;;;;;;5068139;28;20124;-69
2023/01/12 08:34:28;;;;;;;7.88;2.80;;;;;;;;;;5019341;28;20128;-69
2023/01/12 08:36:57;;;;;;;3.30;2.35;;;;;;;;;;5021739;28;20132;-70
2023/01/12 08:39:22;;;;;;;5.30;2.90;;;;;;;;;;5022105;28;20049;-70
2023/01/12 08:41:48;;;;;;;6.07;2.45;;;;;;;;;;5021522;28;20060;-68
2023/01/12 08:44:14;;;;;;;4.30;2.67;;;;;;;;;;5018983;28;20038;-68
2023/01/12 08:46:50;;;;;;;4.40;2.53;;;;;;;;;;5020227;28;20056;-70
2023/01/12 08:49:18;;;;;;;6.47;2.58;;;;;;;;;;5021035;28;20041;-69
2023/01/12 08:51:44;;;;;;;3.20;2.35;;;;;;;;;;5020235;28;20048;-69
2023/01/12 08:54:11;;;;;;;7.00;2.70;;;;;;;;;;5020440;28;20442;-70
2023/01/12 08:56:37;;;;;;;2.90;2.20;;;;;;;;;;5020068;28;20554;-70
2023/01/12 08:59:03;;;;;;;4.82;2.35;;;;;;;;;;5021292;28;20091;-69
2023/01/12 09:01:29;;;;;;;2.78;1.92;;;;;;;;;;5021843;28;20049;-70
2023/01/12 09:03:56;;;;;;;4.45;2.65;;;;;;;;;;5022944;28;20064;-70
2023/01/12 09:06:24;;;;;;;6.50;2.90;;;;;;;;;;5017309;28;20868;-70
2023/01/12 09:09:00;;;;;;;5.75;2.92;;;;;;;;;;5019649;28;20042;-69
2023/01/12 09:11:28;;;;;;;4.45;2.53;;;;;;;;;;5021188;28;20540;-68
2023/01/12 09:13:54;;;;;;;4.00;2.45;;;;;;;;;;5021205;28;20083;-68
2023/01/12 09:16:20;;;;;;;5.65;3.28;;;;;;;;;;5035695;28;20854;-68
2023/01/12 09:18:46;;;;;;;5.20;3.58;;;;;;;;;;5019522;28;20038;-71
2023/01/12 09:21:15;;;;;;;4.13;3.25;;;;;;;;;;5020294;28;20115;-70
2023/01/12 09:23:42;;;;;;;5.40;3.10;;;;;;;;;;5020462;28;20071;-69
2023/01/12 09:26:10;;;;;;;3.70;2.97;;;;;;;;;;5035641;28;20112;-70
2023/01/12 09:28:38;;;;;;;4.88;2.60;;;;;;;;;;5019914;28;20052;-70
2023/01/12 09:31:05;;;;;;;3.45;2.80;;;;;;;;;;5021372;28;20052;-70
2023/01/12 09:33:32;;;;;;;4.22;3.03;;;;;;;;;;5020291;28;20132;-70
2023/01/12 09:36:06;;;;;;;2.13;1.77;;;;;;;;;;5020460;28;20442;-70
2023/01/12 09:38:33;;;;;;;4.70;2.90;;;;;;;;;;5020449;28;20634;-70
2023/01/12 09:41:01;;;;;;;7.22;3.53;;;;;;;;;;5019591;28;20056;-68
2023/01/12 09:49:25;;;;;;;11.85;3.53;;;;;;;;;;5020959;28;20049;-69
2023/01/12 09:52:14;;;;;;;6.75;3.50;;;;;;;;;;5019386;28;20053;-69
2023/01/12 09:54:40;;;;;;;4.70;3.00;;;;;;;;;;5019558;28;20064;-68
2023/01/12 09:57:21;;;;;;;7.32;3.72;;;;;;;;;;5020686;28;20479;-69
2023/01/12 10:00:07;;;;;;;7.18;3.78;;;;;;;;;;5020358;28;21047;-69
2023/01/12 10:02:41;;;;;;;;;;;;;;;;;;5018647;28;20403;-69
2023/01/12 10:05:16;;;;;;;5.45;3.92;;;;;;;;;;5003984;28;19921;-69
2023/01/12 10:07:42;;;;;;;6.43;3.38;;;;;;;;;;5020891;28;20073;-68
2023/01/12 10:10:14;;;;;;;5.57;3.65;;;;;;;;;;5020619;28;20140;-68
2023/01/12 10:12:45;;;;;;;4.78;2.97;;;;;;;;;;5021673;28;20164;-69
2023/01/12 10:15:39;;;;;;;6.72;3.20;;;;;;;;;;5021239;28;20630;-69
2023/01/12 10:18:14;;;;;;;6.78;3.05;;;;;;;;;;5045665;28;20084;-68
2023/01/12 10:20:42;;;;;;;5.25;2.65;;;;;;;;;;5019947;28;20037;-69
2023/01/12 10:23:08;;;;;;;7.90;4.22;;;;;;;;;;5020397;28;20058;-69
2023/01/12 10:25:47;;;;;;;3.67;2.88;;;;;;;;;;5020600;28;20055;-69
2023/01/12 10:28:34;;;;;;;2.85;2.22;;;;;;;;;;5022508;28;20124;-69
2023/01/12 10:31:00;;;;;;;3.65;2.20;;;;;;;;;;5021710;28;20053;-71
2023/01/12 10:33:31;;;;;;;4.00;2.30;;;;;;;;;;5025893;28;20049;-70
2023/01/12 10:36:01;;;;;;;3.87;2.47;;;;;;;;;;5024749;28;20085;-69
2023/01/12 10:38:30;;;;;;;2.65;2.10;;;;;;;;;;5026687;28;20046;-69
2023/01/12 10:41:11;;;;;;;2.38;2.17;;;;;;;;;;5026341;28;20435;-69
2023/01/12 10:43:38;;;;;;;3.28;2.13;;;;;;;;;;5026201;28;20569;-69
2023/01/12 10:46:17;;;;;;;5.85;2.30;;;;;;;;;;5024615;28;20052;-69
2023/01/12 10:48:45;;;;;;;4.18;2.42;;;;;;;;;;5026518;28;20049;-70
2023/01/12 10:51:20;;;;;;;5.18;2.30;;;;;;;;;;5024727;28;20045;-71
2023/01/12 10:54:01;;;;;;;1.92;1.65;;;;;;;;;;5031651;28;20049;-68
2023/01/12 10:56:38;;;;;;;3.50;2.17;;;;;;;;;;5022963;28;20593;-68
2023/01/12 10:59:17;;;;;;;3.15;2.10;;;;;;;;;;5023795;28;20050;-69
2023/01/12 11:01:46;;;;;;;4.25;1.52;;;;;;;;;;5023165;28;20652;-69
2023/01/12 11:04:15;;;;;;;2.00;1.70;;;;;;;;;;5022824;28;20053;-70
2023/01/12 11:06:53;;;;;;;2.97;1.67;;;;;;;;;;5023317;28;20075;-71
2023/01/12 11:09:27;;;;;;;3.88;2.58;;;;;;;;;;5024678;28;20041;-70
2023/01/12 11:11:59;;;;;;;5.68;2.88;;;;;;;;;;5023612;28;20052;-69
2023/01/12 11:14:35;;;;;;;4.43;2.50;;;;;;;;;;5022652;28;20649;-70
2023/01/12 11:17:28;;;;;;;2.78;2.58;;;;;;;;;;5023828;28;20095;-71
2023/01/12 11:19:54;;;;;;;;;;;;;;;;;;5022444;28;20505;-70
2023/01/12 11:22:26;;;;;;;3.40;2.45;;;;;;;;;;5023056;28;19947;-70
2023/01/12 11:24:57;;;;;;;;;;;;;;;;;;5022483;28;20052;-71
2023/01/12 11:27:43;;;;;;;1.73;1.42;;;;;;;;;;5023388;28;19986;-71
2023/01/12 11:30:21;;;;;;;2.17;1.73;;;;;;;;;;5050883;28;20072;-70
2023/01/12 11:32:57;;;;;;;7.10;3.05;;;;;;;;;;5020786;28;20054;-71
2023/01/12 11:35:48;;;;;;;4.30;3.38;;;;;;;;;;5019809;28;20084;-70
2023/01/12 11:38:32;;;;;;;4.43;3.15;;;;;;;;;;5037725;28;20041;-70
2023/01/12 11:40:58;;;;;;;3.40;2.67;;;;;;;;;;5019704;28;20049;-69
2023/01/12 11:43:50;;;;;;;5.13;2.97;;;;;;;;;;5020663;28;20048;-68
2023/01/12 11:46:41;;;;;;;3.88;2.42;;;;;;;;;;5041426;28;20045;-70
2023/01/12 11:49:24;;;;;;;3.45;2.10;;;;;;;;;;5021671;28;20124;-69
2023/01/12 11:51:55;;;;;;;3.97;2.40;;;;;;;;;;5020495;28;20115;-69
2023/01/12 11:54:22;;;;;;;2.85;2.45;;;;;;;;;;5022361;28;20056;-70
2023/01/12 11:57:09;;;;;;;7.22;3.22;;;;;;;;;;5021700;28;20051;-70
2023/01/12 11:59:59;;;;;;;3.58;2.92;;;;;;;;;;5037088;28;20069;-70
2023/01/12 12:02:31;;;;;;;3.00;2.70;;;;;;;;;;5021681;28;20069;-70
2023/01/12 12:05:09;;;;;;;3.08;2.50;;;;;;;;;;5028507;28;20049;-69
2023/01/12 12:07:44;;;;;;;5.65;2.90;;;;;;;;;;5019626;28;20045;-69
2023/01/12 12:10:27;;;;;;;4.93;2.75;;;;;;;;;;5022625;28;20050;-70
2023/01/12 12:13:11;;;;;;;2.72;2.30;;;;;;;;;;5022783;28;20045;-70
2023/01/12 12:15:55;;;;;;;2.25;2.05;;;;;;;;;;5022034;28;20094;-70
2023/01/12 12:18:41;;;;;;;5.55;2.28;;;;;;;;;;5021615;28;20885;-70
2023/01/12 12:21:16;;;;;;;3.45;2.50;;;;;;;;;;5020482;28;20160;-70
2023/01/12 12:23:58;;;;;;;3.40;2.47;;;;;;;;;;5020634;28;20049;-67
2023/01/12 12:26:33;;;;;;;3.03;2.53;;;;;;;;;;5033888;28;20856;-69
2023/01/12 12:29:15;;;;;;;3.60;2.53;;;;;;;;;;5018665;28;20053;-68
2023/01/12 12:32:07;;;;;;;3.03;2.42;;;;;;;;;;5017515;28;20239;-70
2023/01/12 12:35:08;;;;;;;2.53;2.30;;;;;;;;;;5010231;28;20049;-68
2023/01/12 12:38:04;;;;;;;3.25;2.38;;;;;;;;;;5017014;28;20045;-71
2023/01/12 12:45:15;;;;;;;3.25;2.78;;;;;;;;;;5034318;28;20085;-69
2023/01/12 12:46:48;;;;;;;6.45;3.00;;;;;;;;;;5059439;28;20045;-69
2023/01/12 12:49:18;;;;;;;3.22;2.88;;;;;;;;;;5019206;28;21229;-68
2023/01/12 12:51:45;;;;;;;3.95;2.97;;;;;;;;;;5018007;28;20049;-69
2023/01/12 12:54:19;;;;;;;7.97;2.90;;;;;;;;;;5017671;28;20155;-69
2023/01/12 12:56:46;;;;;;;3.97;2.90;;;;;;;;;;5019311;28;20050;-69
2023/01/12 12:59:29;;;;;;;4.25;2.72;;;;;;;;;;5018298;28;20045;-69
2023/01/12 13:01:57;;;;;;;5.65;2.65;;;;;;;;;;5019104;28;20136;-70
2023/01/12 13:04:41;;;;;;;3.85;2.60;;;;;;;;;;5027391;28;20405;-69
2023/01/12 13:07:10;;;;;;;3.08;2.55;;;;;;;;;;5019230;28;20076;-68
2023/01/12 13:09:39;;;;;;;3.58;2.28;;;;;;;;;;5016390;28;20125;-70
2023/01/12 13:12:04;;;;;;;4.38;2.90;;;;;;;;;;5019930;28;20056;-70
2023/01/12 13:14:41;;;;;;;3.03;2.58;;;;;;;;;;5019740;28;20049;-67
2023/01/12 13:17:18;;;;;;;3.88;2.63;;;;;;;;;;5020653;28;20076;-68
2023/01/12 13:19:45;;;;;;;3.90;2.60;;;;;;;;;;5018620;28;20562;-68
2023/01/12 13:22:48;;;;;;;5.43;3.47;;;;;;;;;;5020814;28;20060;-68
2023/01/12 13:25:23;;;;;;;5.88;3.28;;;;;;;;;;5016138;28;20402;-68
2023/01/12 13:28:01;;;;;;;4.20;2.67;;;;;;;;;;5017699;28;20157;-68
2023/01/12 13:30:29;;;;;;;4.43;3.55;;;;;;;;;;5018152;28;20075;-69
2023/01/12 13:33:14;;;;;;;5.25;3.92;;;;;;;;;;5037060;28;20406;-68
2023/01/12 13:35:39;;;;;;;5.88;3.95;;;;;;;;;;5020944;28;20055;-68
2023/01/12 13:38:35;;;;;;;3.70;3.30;;;;;;;;;;5019429;28;20050;-68
2023/01/12 13:41:13;;;;;;;3.88;3.40;;;;;;;;;;5018275;28;20080;-71
2023/01/12 13:43:44;;;;;;;5.18;3.83;;;;;;;;;;5019607;28;20395;-69
2023/01/12 13:46:17;;;;;;;9.90;3.97;;;;;;;;;;5017276;28;20068;-68
2023/01/12 13:48:49;;;;;;;5.00;2.88;;;;;;;;;;5019931;28;21001;-68
2023/01/12 13:51:27;;;;;;;2.15;1.70;;;;;;;;;;5021257;28;20060;-68
2023/01/12 13:54:03;;;;;;;3.47;1.80;;;;;;;;;;5019822;28;20053;-69
2023/01/12 13:56:28;;;;;;;1.42;0.80;;;;;;;;;;5020968;28;20049;-67
2023/01/12 13:59:02;;;;;;;0.90;0.60;;;;;;;;;;5022710;28;20053;-68
2023/01/12 14:01:32;;;;;;;0.57;0.47;;;;;;;;;;5023209;28;20037;-69
2023/01/12 14:04:13;;;;;;;1.05;0.32;;;;;;;;;;5021950;28;20042;-68
2023/01/12 14:07:07;;;;;;;1.05;0.63;;;;;;;;;;5022635;28;20456;-68
2023/01/12 14:09:57;;;;;;;0.52;0.50;;;;;;;;;;5039653;28;20170;-68
2023/01/12 14:12:44;;;;;;;0.60;0.45;;;;;;;;;;5025078;28;20133;-69
2023/01/12 14:18:18;;;;;;;1.00;0.60;;;;;;;;;;5019904;28;20072;-68
2023/01/12 14:20:57;;;;;;;2.60;0.95;;;;;;;;;;5023074;28;20402;-68
2023/01/12 14:23:33;;;;;;;2.63;0.70;;;;;;;;;;5024129;28;20136;-69
2023/01/12 14:26:08;;;;;;;0.88;0.60;;;;;;;;;;5021429;28;20103;-69
2023/01/12 14:28:34;;;;;;;1.38;0.88;;;;;;;;;;5022776;28;20117;-69
2023/01/12 14:31:00;;;;;;;1.02;0.65;;;;;;;;;;5039235;28;20049;-70
2023/01/12 14:33:29;;;;;;;4.25;0.68;;;;;;;;;;5024182;28;20048;-70
2023/01/12 14:36:00;;;;;;;0.35;0.20;;;;;;;;;;5023023;28;20053;-70
2023/01/12 14:38:27;;;;;;;0.20;0.20;;;;;;;;;;5020174;28;20045;-69
2023/01/12 14:41:02;;;;;;;1.83;0.47;;;;;;;;;;5021371;28;20481;-70
2023/01/12 14:46:32;;;;;;;2.33;0.57;;;;;;;;;;5040490;28;20049;-68
2023/01/12 14:49:19;;;;;;;2.05;0.55;;;;;;;;;;5021981;28;20060;-69
2023/01/12 14:52:18;;;;;;;0.40;0.40;;;;;;;;;;5022799;28;20045;-69
2023/01/12 14:54:43;;;;;;;2.67;0.80;;;;;;;;;;5022938;28;20056;-68
2023/01/12 14:57:29;;;;;;;1.67;0.55;;;;;;;;;;5037359;28;20426;-68
2023/01/12 14:59:55;;;;;;;1.35;0.60;;;;;;;;;;5020698;28;20056;-69
2023/01/12 15:02:32;;;;;;;3.20;0.73;;;;;;;;;;5020618;28;20054;-69
2023/01/12 15:05:09;;;;;;;0.95;0.40;;;;;;;;;;5021791;28;20123;-66
2023/01/12 15:07:50;;;;;;;2.70;0.50;;;;;;;;;;5021732;28;20067;-70
2023/01/12 15:10:16;;;;;;;0.80;0.47;;;;;;;;;;5021911;28;20071;-69
2023/01/12 15:12:47;;;;;;;0.50;0.40;;;;;;;;;;5023353;28;20846;-69
2023/01/12 15:15:16;;;;;;;0.70;0.47;;;;;;;;;;5022275;28;20104;-69
2023/01/12 15:25:56;;;;;;;5.80;0.60;;;;;;;;;;5019735;28;20068;-69
2023/01/12 15:28:23;;;;;;;1.65;0.50;;;;;;;;;;5021426;28;20497;-70
2023/01/12 15:30:50;;;;;;;0.38;0.38;;;;;;;;;;5022166;28;20045;-69
2023/01/12 15:33:15;;;;;;;1.33;0.50;;;;;;;;;;5021443;28;20053;-70
2023/01/12 15:35:44;;;;;;;2.17;0.90;;;;;;;;;;5022219;28;20072;-69
2023/01/12 15:38:17;;;;;;;1.08;0.60;;;;;;;;;;5023774;28;20053;-70
2023/01/12 15:40:46;;;;;;;0.88;0.50;;;;;;;;;;5023717;28;20457;-69
2023/01/12 15:43:14;;;;;;;0.80;0.70;;;;;;;;;;5022659;28;20048;-72
2023/01/12 15:45:45;;;;;;;1.65;0.63;;;;;;;;;;5021110;28;20517;-69
2023/01/12 15:48:11;;;;;;;2.78;1.13;;;;;;;;;;5023618;28;20057;-69
2023/01/12 15:50:39;;;;;;;3.97;0.98;;;;;;;;;;5023885;28;20052;-69
2023/01/12 15:53:11;;;;;;;0.80;0.60;;;;;;;;;;5023395;28;20049;-70
2023/01/12 15:55:38;;;;;;;1.65;0.73;;;;;;;;;;5020676;28;20049;-69
2023/01/12 15:58:03;;;;;;;1.25;0.70;;;;;;;;;;5023002;28;20410;-69